createdAt,value
2023-03-04T00:01:51.891Z,75.47
2023-03-04T00:04:18.339Z,79.63
2023-03-04T00:06:44.723Z,79.43
2023-03-04T00:09:11.176Z,75.85
2023-03-04T00:11:37.574Z,87.78
2023-03-04T00:14:04.006Z,83.57
2023-03-04T00:16:30.475Z,93.95
2023-03-04T00:18:57.226Z,88.00
2023-03-04T00:21:23.992Z,84.15
2023-03-04T00:23:50.613Z,84.57
2023-03-04T00:26:16.992Z,79.38
2023-03-04T00:28:43.804Z,76.82
2023-03-04T00:31:10.963Z,73.50
2023-03-04T00:33:37.527Z,70.50
2023-03-04T00:36:04.604Z,77.22
2023-03-04T00:38:31.043Z,74.47
2023-03-04T00:40:57.748Z,74.03
2023-03-04T00:43:24.365Z,73.43
2023-03-04T00:45:50.875Z,77.53
2023-03-04T00:48:17.506Z,71.90
2023-03-04T00:50:44.258Z,76.65
2023-03-04T00:53:10.767Z,68.47
2023-03-04T00:55:37.232Z,73.45
2023-03-04T00:58:03.632Z,71.05
2023-03-04T01:00:30.136Z,71.28
2023-03-04T01:02:56.645Z,73.55
2023-03-04T01:05:23.088Z,72.38
2023-03-04T01:07:49.569Z,75.53
2023-03-04T01:10:16.195Z,68.47
2023-03-04T01:12:43.024Z,71.68
2023-03-04T01:15:10.793Z,70.05
2023-03-04T01:17:37.245Z,77.68
2023-03-04T01:20:04.834Z,71.13
2023-03-04T01:22:31.314Z,75.22
2023-03-04T01:24:57.775Z,77.25
2023-03-04T01:27:24.176Z,69.45
2023-03-04T01:29:50.626Z,69.57
2023-03-04T01:32:17.090Z,74.32
2023-03-04T01:34:45.783Z,73.10
2023-03-04T01:37:13.779Z,71.10
2023-03-04T01:39:40.264Z,75.20
2023-03-04T01:42:09.716Z,77.22
2023-03-04T01:44:36.232Z,75.43
2023-03-04T01:47:02.680Z,73.43
2023-03-04T01:49:29.160Z,73.90
2023-03-04T01:51:55.649Z,74.80
2023-03-04T01:54:22.802Z,78.38
2023-03-04T01:56:50.694Z,76.28
2023-03-04T01:59:24.473Z,74.82
2023-03-04T02:01:52.724Z,73.65
2023-03-04T02:04:20.571Z,83.10
2023-03-04T02:06:47.909Z,73.35
2023-03-04T02:09:15.360Z,75.40
2023-03-04T02:11:42.395Z,79.75
2023-03-04T02:14:11.734Z,72.03
2023-03-04T02:16:38.614Z,79.93
2023-03-04T02:19:06.921Z,76.82
2023-03-04T02:21:34.009Z,76.97
2023-03-04T02:24:00.444Z,71.47
2023-03-04T02:26:27.761Z,75.95
2023-03-04T02:28:55.257Z,85.70
2023-03-04T02:31:21.706Z,77.40
2023-03-04T02:33:48.167Z,73.70
2023-03-04T02:36:14.643Z,80.18
2023-03-04T02:38:41.252Z,79.18
2023-03-04T02:41:09.876Z,85.90
2023-03-04T02:43:38.649Z,82.95
2023-03-04T02:46:05.977Z,81.72
2023-03-04T02:48:32.451Z,76.03
2023-03-04T02:50:58.914Z,76.93
2023-03-04T02:53:25.639Z,77.60
2023-03-04T02:55:52.072Z,75.97
2023-03-04T02:58:18.519Z,81.03
2023-03-04T03:00:47.386Z,79.93
2023-03-04T03:03:13.937Z,79.72
2023-03-04T03:05:40.792Z,75.60
2023-03-04T03:08:07.539Z,79.97
2023-03-04T03:10:36.610Z,77.50
2023-03-04T03:13:08.461Z,76.85
2023-03-04T03:15:35.522Z,76.70
2023-03-04T03:18:01.992Z,75.95
2023-03-04T03:20:28.437Z,75.53
2023-03-04T03:22:54.826Z,77.63
2023-03-04T03:25:21.318Z,78.28
2023-03-04T03:27:47.803Z,74.22
2023-03-04T03:30:15.062Z,76.50
2023-03-04T03:32:41.481Z,72.45
2023-03-04T03:35:08.144Z,79.60
2023-03-04T03:37:34.731Z,67.38
2023-03-04T03:40:01.172Z,72.25
2023-03-04T03:42:27.702Z,74.63
2023-03-04T03:44:54.126Z,72.93
2023-03-04T03:47:20.657Z,78.55
2023-03-04T03:49:47.125Z,79.40
2023-03-04T03:52:14.021Z,80.32
2023-03-04T03:54:40.494Z,68.68
2023-03-04T03:57:06.940Z,78.55
2023-03-04T03:59:33.392Z,76.97
2023-03-04T04:01:59.962Z,73.15
2023-03-04T04:04:26.731Z,75.15
2023-03-04T04:06:53.207Z,75.40
2023-03-04T04:09:19.876Z,76.57
2023-03-04T04:11:48.624Z,81.50
2023-03-04T04:14:15.181Z,82.20
2023-03-04T04:16:44.383Z,74.55
2023-03-04T04:19:20.342Z,77.25
2023-03-04T04:21:47.388Z,74.43
2023-03-04T04:24:13.913Z,80.55
2023-03-04T04:26:40.534Z,72.93
2023-03-04T04:29:06.956Z,73.97
2023-03-04T04:31:33.470Z,69.05
2023-03-04T04:33:59.972Z,77.35
2023-03-04T04:36:26.986Z,74.68
2023-03-04T04:38:53.462Z,78.68
2023-03-04T04:41:21.638Z,70.22
2023-03-04T04:43:50.985Z,73.90
2023-03-04T04:46:20.344Z,73.03
2023-03-04T04:48:47.148Z,74.78
2023-03-04T04:51:13.616Z,67.13
2023-03-04T04:53:40.190Z,74.43
2023-03-04T04:56:10.676Z,72.28
2023-03-04T04:58:37.496Z,75.30
2023-03-04T05:01:04.893Z,71.07
2023-03-04T05:03:31.950Z,71.47
2023-03-04T05:06:00.911Z,80.95
2023-03-04T05:08:27.416Z,67.55
2023-03-04T05:10:54.023Z,66.18
2023-03-04T05:13:20.492Z,67.80
2023-03-04T05:15:47.250Z,71.53
2023-03-04T05:18:13.956Z,70.18
2023-03-04T05:20:40.420Z,68.75
2023-03-04T05:23:07.245Z,66.22
2023-03-04T05:25:33.684Z,63.80
2023-03-04T05:28:02.061Z,71.22
2023-03-04T05:30:28.513Z,73.50
2023-03-04T05:32:54.961Z,70.60
2023-03-04T05:35:21.542Z,67.85
2023-03-04T05:37:47.992Z,73.45
2023-03-04T05:40:14.513Z,68.88
2023-03-04T05:42:40.963Z,72.53
2023-03-04T05:45:07.836Z,67.78
2023-03-04T05:47:34.281Z,70.38
2023-03-04T05:50:00.735Z,77.93
2023-03-04T05:52:27.170Z,74.57
2023-03-04T05:54:56.047Z,72.43
2023-03-04T05:57:22.644Z,66.63
2023-03-04T05:59:49.081Z,74.45
2023-03-04T06:02:15.533Z,71.45
2023-03-04T06:04:41.949Z,71.60
2023-03-04T06:07:08.419Z,76.25
2023-03-04T06:09:34.839Z,78.13
2023-03-04T06:12:01.323Z,87.78
2023-03-04T06:14:27.866Z,82.13
2023-03-04T06:16:54.489Z,89.45
2023-03-04T06:19:21.024Z,83.88
2023-03-04T06:21:47.532Z,174.05
2023-03-04T06:24:14.072Z,495.48
2023-03-04T06:26:43.096Z,525.78
2023-03-04T06:29:09.827Z,1112.55
2023-03-04T06:31:36.333Z,547.67
2023-03-04T06:34:02.788Z,124.07
2023-03-04T06:36:29.370Z,84.75
2023-03-04T06:38:55.869Z,84.75
2023-03-04T06:41:22.324Z,86.28
2023-03-04T06:43:48.873Z,76.60
2023-03-04T06:46:15.584Z,76.97
2023-03-04T06:48:42.340Z,80.22
2023-03-04T06:51:09.655Z,73.40
2023-03-04T06:53:36.478Z,74.35
2023-03-04T06:56:03.346Z,92.88
2023-03-04T06:58:29.993Z,131.57
2023-03-04T07:00:56.581Z,91.72
2023-03-04T07:03:23.611Z,73.55
2023-03-04T07:05:50.071Z,65.75
2023-03-04T07:08:16.820Z,70.07
2023-03-04T07:10:43.277Z,72.28
2023-03-04T07:13:09.951Z,70.35
2023-03-04T07:15:37.403Z,72.45
2023-03-04T07:18:03.911Z,73.97
2023-03-04T07:20:31.815Z,78.78
2023-03-04T07:22:58.345Z,75.72
2023-03-04T07:25:24.830Z,73.05
2023-03-04T07:27:51.287Z,72.28
2023-03-04T07:30:17.882Z,74.80
2023-03-04T07:32:44.399Z,76.88
2023-03-04T07:35:11.065Z,77.13
2023-03-04T07:37:37.733Z,80.13
2023-03-04T07:40:04.346Z,86.50
2023-03-04T07:42:30.916Z,118.55
2023-03-04T07:44:57.807Z,111.38
2023-03-04T07:47:24.369Z,103.53
2023-03-04T07:49:50.886Z,107.05
2023-03-04T07:52:17.359Z,108.63
2023-03-04T07:54:43.824Z,95.65
2023-03-04T07:57:10.488Z,88.63
2023-03-04T07:59:36.956Z,82.95
2023-03-04T08:02:03.430Z,77.20
2023-03-04T08:04:30.283Z,77.85
2023-03-04T08:06:56.717Z,74.10
2023-03-04T08:09:23.274Z,76.53
2023-03-04T08:11:49.993Z,71.28
2023-03-04T08:14:16.514Z,72.50
2023-03-04T08:16:43.016Z,73.40
2023-03-04T08:19:09.556Z,85.55
2023-03-04T08:21:36.262Z,67.00
2023-03-04T08:24:08.190Z,68.60
2023-03-04T08:26:40.830Z,83.00
2023-03-04T08:29:08.645Z,75.90
2023-03-04T08:31:35.226Z,63.25
2023-03-04T08:34:03.160Z,61.33
2023-03-04T08:36:29.718Z,55.65
2023-03-04T08:38:56.234Z,58.03
2023-03-04T08:41:27.505Z,53.03
2023-03-04T08:43:56.660Z,57.65
2023-03-04T08:46:23.232Z,55.13
2023-03-04T08:48:52.308Z,51.38
2023-03-04T08:51:19.157Z,51.67
2023-03-04T08:53:46.179Z,46.85
2023-03-04T08:56:13.813Z,52.03
2023-03-04T08:58:40.553Z,49.45
2023-03-04T09:01:10.531Z,51.80
2023-03-04T09:03:39.922Z,49.53
2023-03-04T09:06:07.196Z,49.17
2023-03-04T09:08:34.063Z,49.88
2023-03-04T09:11:00.623Z,51.15
2023-03-04T09:13:28.782Z,52.25
2023-03-04T09:15:55.553Z,51.22
2023-03-04T09:18:23.083Z,50.03
2023-03-04T09:20:49.656Z,50.38
2023-03-04T09:23:16.269Z,45.30
2023-03-04T09:25:43.085Z,45.28
2023-03-04T09:28:10.656Z,43.40
2023-03-04T09:30:39.746Z,45.13
2023-03-04T09:33:06.248Z,44.88
2023-03-04T09:35:32.813Z,46.28
2023-03-04T09:37:59.396Z,42.58
2023-03-04T09:40:33.528Z,42.13
2023-03-04T09:43:03.334Z,39.85
2023-03-04T09:45:34.747Z,40.72
2023-03-04T09:48:01.780Z,44.80
2023-03-04T09:50:32.312Z,41.45
2023-03-04T09:52:58.797Z,39.33
2023-03-04T09:55:39.355Z,37.17
2023-03-04T09:58:25.025Z,36.90
2023-03-04T10:01:00.826Z,40.05
2023-03-04T10:03:32.052Z,37.15
2023-03-04T10:06:06.071Z,37.92
2023-03-04T10:08:41.832Z,37.20
2023-03-04T10:11:16.500Z,37.67
2023-03-04T10:13:48.909Z,33.80
2023-03-04T10:16:18.207Z,35.38
2023-03-04T10:18:48.607Z,33.13
2023-03-04T10:21:24.377Z,38.88
2023-03-04T10:23:51.051Z,34.13
2023-03-04T10:26:20.832Z,33.25
2023-03-04T10:28:47.766Z,30.52
2023-03-04T10:31:22.882Z,33.97
2023-03-04T10:33:49.724Z,32.33
2023-03-04T10:36:28.348Z,35.90
2023-03-04T10:38:59.669Z,33.97
2023-03-04T10:41:27.783Z,32.55
2023-03-04T10:44:26.806Z,33.88
2023-03-04T10:46:54.642Z,33.17
2023-03-04T10:49:21.405Z,32.90
2023-03-04T10:51:48.458Z,33.72
2023-03-04T10:54:44.044Z,36.20
2023-03-04T10:57:18.249Z,37.70
2023-03-04T10:59:46.068Z,34.67
2023-03-04T11:02:22.878Z,33.88
2023-03-04T11:04:51.160Z,31.40
2023-03-04T11:07:17.606Z,32.70
2023-03-04T11:09:44.810Z,34.42
2023-03-04T11:12:12.614Z,33.05
2023-03-04T11:14:45.996Z,40.97
2023-03-04T11:17:18.784Z,35.15
2023-03-04T11:19:47.387Z,38.78
2023-03-04T11:22:15.924Z,32.35
2023-03-04T11:24:45.969Z,39.08
2023-03-04T11:27:18.675Z,41.60
2023-03-04T11:30:11.505Z,39.03
2023-03-04T11:32:40.494Z,38.45
2023-03-04T11:35:06.976Z,41.20
2023-03-04T11:37:36.470Z,75.10
2023-03-04T11:40:06.199Z,45.30
2023-03-04T11:42:32.937Z,42.47
2023-03-04T11:44:59.470Z,40.63
2023-03-04T11:47:25.944Z,42.60
2023-03-04T11:50:10.672Z,41.25
2023-03-04T11:52:40.161Z,43.85
2023-03-04T11:55:15.748Z,41.03
2023-03-04T11:57:50.760Z,42.60
2023-03-04T12:00:23.330Z,47.13
2023-03-04T12:03:05.167Z,43.13
2023-03-04T12:05:41.198Z,43.60
2023-03-04T12:08:21.833Z,42.25
2023-03-04T12:11:06.646Z,44.50
2023-03-04T12:13:36.370Z,42.42
2023-03-04T12:16:08.892Z,46.97
2023-03-04T12:18:41.426Z,42.20
2023-03-04T12:21:32.597Z,39.30
2023-03-04T12:24:16.368Z,40.63
2023-03-04T12:27:01.215Z,36.80
2023-03-04T12:29:46.496Z,36.25
2023-03-04T12:32:27.513Z,33.53
2023-03-04T12:35:12.544Z,33.72
2023-03-04T12:37:39.073Z,36.42
2023-03-04T12:40:12.493Z,29.10
2023-03-04T12:42:57.296Z,28.27
2023-03-04T12:45:40.316Z,33.35
2023-03-04T12:48:14.286Z,28.13
2023-03-04T12:50:49.768Z,30.10
2023-03-04T12:53:17.449Z,26.92
2023-03-04T12:55:47.168Z,29.02
2023-03-04T12:58:16.292Z,27.02
2023-03-04T13:00:42.735Z,26.80
2023-03-04T13:03:09.230Z,26.27
2023-03-04T13:05:35.713Z,24.80
2023-03-04T13:08:08.649Z,24.80
2023-03-04T13:10:35.953Z,25.60
2023-03-04T13:13:04.628Z,23.30
2023-03-04T13:15:37.935Z,23.73
2023-03-04T13:18:24.371Z,19.75
2023-03-04T13:21:05.599Z,19.85
2023-03-04T13:23:32.710Z,19.02
2023-03-04T13:25:59.144Z,23.05
2023-03-04T13:28:31.396Z,22.38
2023-03-04T13:31:00.324Z,37.22
2023-03-04T13:33:26.879Z,31.30
2023-03-04T13:35:58.148Z,20.45
2023-03-04T13:38:24.705Z,21.15
2023-03-04T13:41:00.055Z,20.45
2023-03-04T13:43:27.967Z,20.63
2023-03-04T13:45:54.572Z,21.55
2023-03-04T13:48:25.898Z,19.98
2023-03-04T13:50:52.711Z,21.60
2023-03-04T13:53:23.767Z,18.80
2023-03-04T13:56:20.048Z,18.33
2023-03-04T13:58:48.164Z,19.05
2023-03-04T14:01:25.527Z,22.83
2023-03-04T14:03:52.043Z,20.98
2023-03-04T14:06:20.241Z,19.92
2023-03-04T14:08:49.580Z,20.70
2023-03-04T14:11:19.182Z,17.98
2023-03-04T14:13:48.240Z,17.85
2023-03-04T14:16:19.860Z,20.85
2023-03-04T14:18:46.371Z,20.70
2023-03-04T14:21:15.896Z,21.50
2023-03-04T14:23:42.401Z,19.70
2023-03-04T14:26:13.398Z,20.88
2023-03-04T14:28:44.238Z,22.10
2023-03-04T14:31:15.175Z,22.48
2023-03-04T14:33:44.640Z,20.05
2023-03-04T14:36:15.869Z,23.80
2023-03-04T14:38:47.256Z,21.25
2023-03-04T14:41:21.331Z,23.15
2023-03-04T14:43:50.890Z,21.20
2023-03-04T14:46:18.996Z,20.38
2023-03-04T14:48:49.148Z,34.95
2023-03-04T14:51:39.016Z,23.67
2023-03-04T14:54:05.660Z,32.20
2023-03-04T14:56:34.201Z,45.28
2023-03-04T14:59:00.777Z,25.90
2023-03-04T15:01:37.057Z,22.52
2023-03-04T15:04:05.525Z,23.52
2023-03-04T15:06:33.178Z,20.15
2023-03-04T15:09:03.832Z,21.13
2023-03-04T15:11:32.854Z,20.60
2023-03-04T15:14:00.208Z,19.65
2023-03-04T15:16:46.740Z,23.80
2023-03-04T15:19:31.693Z,22.42
2023-03-04T15:22:08.113Z,24.23
2023-03-04T15:24:34.647Z,25.45
2023-03-04T15:27:01.157Z,21.27
2023-03-04T15:29:28.882Z,21.58
2023-03-04T15:31:55.387Z,22.98
2023-03-04T15:34:22.020Z,21.63
2023-03-04T15:36:51.553Z,23.48
2023-03-04T15:39:21.805Z,24.27
2023-03-04T15:41:48.528Z,23.90
2023-03-04T15:44:15.077Z,22.88
2023-03-04T15:46:41.613Z,25.15
2023-03-04T15:49:08.232Z,23.08
2023-03-04T15:51:35.613Z,24.70
2023-03-04T15:54:02.424Z,24.00
2023-03-04T15:56:30.443Z,24.33
2023-03-04T15:58:58.793Z,25.00
2023-03-04T16:01:25.337Z,28.35
2023-03-04T16:03:53.670Z,23.02
2023-03-04T16:06:23.824Z,23.30
2023-03-04T16:08:50.904Z,24.98
2023-03-04T16:11:22.575Z,25.77
2023-03-04T16:13:49.612Z,27.95
2023-03-04T16:16:16.170Z,24.88
2023-03-04T16:18:43.187Z,27.20
2023-03-04T16:21:12.598Z,26.42
2023-03-04T16:23:40.453Z,27.40
2023-03-04T16:26:11.400Z,26.92
2023-03-04T16:28:40.182Z,29.48
2023-03-04T16:31:07.037Z,27.52
2023-03-04T16:33:35.763Z,30.98
2023-03-04T16:36:03.988Z,26.55
2023-03-04T16:38:34.127Z,29.42
2023-03-04T16:41:03.802Z,25.80
2023-03-04T16:43:30.346Z,25.85
2023-03-04T16:45:56.908Z,29.10
2023-03-04T16:48:23.370Z,29.73
2023-03-04T16:50:49.941Z,27.45
2023-03-04T16:53:22.134Z,33.97
2023-03-04T16:55:48.668Z,30.10
2023-03-04T16:58:18.061Z,29.48
2023-03-04T17:00:44.635Z,31.38
2023-03-04T17:03:11.566Z,35.13
2023-03-04T17:05:38.136Z,31.50
2023-03-04T17:08:04.688Z,35.08
2023-03-04T17:10:31.382Z,29.75
2023-03-04T17:12:57.867Z,33.60
2023-03-04T17:15:24.351Z,32.28
2023-03-04T17:17:52.692Z,32.42
2023-03-04T17:20:19.349Z,33.15
2023-03-04T17:22:48.213Z,36.28
2023-03-04T17:25:15.046Z,32.35
2023-03-04T17:27:41.909Z,35.28
2023-03-04T17:30:11.473Z,31.50
2023-03-04T17:32:39.509Z,32.42
2023-03-04T17:35:09.032Z,37.28
2023-03-04T17:37:35.610Z,31.95
2023-03-04T17:40:03.750Z,30.52
2023-03-04T17:42:33.284Z,29.65
2023-03-04T17:45:02.404Z,34.85
2023-03-04T17:47:28.994Z,35.55
2023-03-04T17:49:55.449Z,32.35
2023-03-04T17:52:21.926Z,32.30
2023-03-04T17:54:48.512Z,34.13
2023-03-04T17:57:15.031Z,29.70
2023-03-04T17:59:41.640Z,28.35
2023-03-04T18:02:13.632Z,29.88
2023-03-04T18:04:42.726Z,32.03
2023-03-04T18:07:09.306Z,30.90
2023-03-04T18:09:38.001Z,37.05
2023-03-04T18:12:04.645Z,30.45
2023-03-04T18:14:33.755Z,29.98
2023-03-04T18:17:00.213Z,33.97
2023-03-04T18:19:26.677Z,29.10
2023-03-04T18:21:53.128Z,31.17
2023-03-04T18:24:19.595Z,29.58
2023-03-04T18:26:46.044Z,31.17
2023-03-04T18:29:12.537Z,33.13
2023-03-04T18:31:39.039Z,29.60
2023-03-04T18:34:05.603Z,32.63
2023-03-04T18:36:32.593Z,30.38
2023-03-04T18:38:59.580Z,35.50
2023-03-04T18:41:28.568Z,37.58
2023-03-04T18:43:55.098Z,33.78
2023-03-04T18:46:42.939Z,30.23
2023-03-04T18:49:13.226Z,29.60
2023-03-04T18:51:39.742Z,33.50
2023-03-04T18:54:06.440Z,31.52
2023-03-04T18:56:38.376Z,39.40
2023-03-04T18:59:16.643Z,33.35
2023-03-04T19:01:43.483Z,31.75
2023-03-04T19:04:10.117Z,33.70
2023-03-04T19:06:36.716Z,32.63
2023-03-04T19:09:05.847Z,30.95
2023-03-04T19:11:32.388Z,30.75
2023-03-04T19:13:59.044Z,32.80
2023-03-04T19:16:25.680Z,33.60
2023-03-04T19:18:54.637Z,32.03
2023-03-04T19:21:21.117Z,31.75
2023-03-04T19:23:47.668Z,33.42
2023-03-04T19:26:15.421Z,30.23
2023-03-04T19:28:42.175Z,38.10
2023-03-04T19:31:12.394Z,46.60
2023-03-04T19:33:40.168Z,35.53
2023-03-04T19:36:07.547Z,32.10
2023-03-04T19:38:34.369Z,33.45
2023-03-04T19:41:09.669Z,31.48
2023-03-04T19:43:38.667Z,30.60
2023-03-04T19:46:06.185Z,33.58
2023-03-04T19:48:33.151Z,34.03
2023-03-04T19:50:59.902Z,32.38
2023-03-04T19:53:26.703Z,33.20
2023-03-04T19:55:54.030Z,31.15
2023-03-04T19:58:20.881Z,32.35
2023-03-04T20:00:47.489Z,35.22
2023-03-04T20:03:14.038Z,32.00
2023-03-04T20:05:40.564Z,32.13
2023-03-04T20:08:07.169Z,34.20
2023-03-04T20:10:41.094Z,29.92
2023-03-04T20:13:08.876Z,30.73
2023-03-04T20:15:35.451Z,30.27
2023-03-04T20:18:02.148Z,29.77
2023-03-04T20:20:31.197Z,33.25
2023-03-04T20:22:58.034Z,30.17
2023-03-04T20:25:24.979Z,29.40
2023-03-04T20:27:51.482Z,30.02
2023-03-04T20:30:18.135Z,33.17
2023-03-04T20:32:45.411Z,30.27
2023-03-04T20:35:15.191Z,31.98
2023-03-04T20:37:41.938Z,30.60
2023-03-04T20:40:09.469Z,30.40
2023-03-04T20:42:36.124Z,35.78
2023-03-04T20:45:02.902Z,33.47
2023-03-04T20:47:29.375Z,30.92
2023-03-04T20:49:55.844Z,35.70
2023-03-04T20:52:22.356Z,31.52
2023-03-04T20:54:48.873Z,29.48
2023-03-04T20:57:17.930Z,33.50
2023-03-04T20:59:44.444Z,32.53
2023-03-04T21:02:13.131Z,37.30
2023-03-04T21:04:39.653Z,33.05
2023-03-04T21:07:08.742Z,32.53
2023-03-04T21:09:35.406Z,30.77
2023-03-04T21:12:02.141Z,33.40
2023-03-04T21:14:30.582Z,36.00
2023-03-04T21:17:01.432Z,33.28
2023-03-04T21:19:29.314Z,33.13
2023-03-04T21:21:59.265Z,34.60
2023-03-04T21:24:26.991Z,34.58
2023-03-04T21:26:53.563Z,36.47
2023-03-04T21:29:21.383Z,35.92
2023-03-04T21:31:56.328Z,32.28
2023-03-04T21:34:24.721Z,29.90
2023-03-04T21:36:51.297Z,31.30
2023-03-04T21:39:19.393Z,31.08
2023-03-04T21:41:46.551Z,32.05
2023-03-04T21:44:28.129Z,32.63
2023-03-04T21:47:00.148Z,32.03
2023-03-04T21:49:26.999Z,36.97
2023-03-04T21:51:55.922Z,46.72
2023-03-04T21:54:25.080Z,88.22
2023-03-04T21:56:51.532Z,72.90
2023-03-04T21:59:18.354Z,32.38
2023-03-04T22:01:44.954Z,43.05
2023-03-04T22:04:11.736Z,37.70
2023-03-04T22:06:39.999Z,34.28
2023-03-04T22:09:06.839Z,37.03
2023-03-04T22:11:33.389Z,32.97
2023-03-04T22:14:03.101Z,31.13
2023-03-04T22:16:30.338Z,33.15
2023-03-04T22:18:56.953Z,32.70
2023-03-04T22:21:23.521Z,32.45
2023-03-04T22:23:50.237Z,31.70
2023-03-04T22:26:21.211Z,32.47
2023-03-04T22:28:47.740Z,33.65
2023-03-04T22:31:14.202Z,35.40
2023-03-04T22:33:40.793Z,30.67
2023-03-04T22:36:07.390Z,29.05
2023-03-04T22:38:35.113Z,32.42
2023-03-04T22:41:01.796Z,31.52
2023-03-04T22:43:28.289Z,34.45
2023-03-04T22:45:54.847Z,36.28
2023-03-04T22:48:21.401Z,33.67
2023-03-04T22:50:47.893Z,35.50
2023-03-04T22:53:14.389Z,35.45
2023-03-04T22:55:40.843Z,38.33
2023-03-04T22:58:07.416Z,36.95
2023-03-04T23:00:34.011Z,37.63
2023-03-04T23:03:00.468Z,32.88
2023-03-04T23:05:27.094Z,38.17
2023-03-04T23:07:53.722Z,39.10
2023-03-04T23:10:22.495Z,34.60
2023-03-04T23:12:49.467Z,36.20
2023-03-04T23:15:17.383Z,35.00
2023-03-04T23:17:44.185Z,35.50
2023-03-04T23:20:17.864Z,38.90
2023-03-04T23:22:50.350Z,39.17
2023-03-04T23:25:17.161Z,36.53
2023-03-04T23:27:43.761Z,36.22
2023-03-04T23:30:15.056Z,35.00
2023-03-04T23:32:41.933Z,33.97
2023-03-04T23:35:08.536Z,32.67
2023-03-04T23:37:34.973Z,32.60
2023-03-04T23:40:01.572Z,36.42
2023-03-04T23:42:30.894Z,36.75
2023-03-04T23:44:57.364Z,33.13
2023-03-04T23:47:23.889Z,36.38
2023-03-04T23:49:50.343Z,36.38
2023-03-04T23:52:16.884Z,43.35
2023-03-04T23:54:43.260Z,37.58
2023-03-04T23:57:09.795Z,46.70
2023-03-04T23:59:37.844Z,38.70
